createdAt,value
2018-06-12T00:00:38.132Z,0
2018-06-12T00:01:43.289Z,0
2018-06-12T00:02:48.452Z,0
2018-06-12T00:03:53.670Z,0
2018-06-12T00:04:58.818Z,0
2018-06-12T00:06:03.443Z,0
2018-06-12T00:07:09.004Z,0
2018-06-12T00:08:14.441Z,0
2018-06-12T00:09:19.883Z,0
2018-06-12T00:10:25.295Z,0
2018-06-12T00:11:30.735Z,0
2018-06-12T00:12:36.297Z,0
2018-06-12T00:13:41.178Z,0
2018-06-12T00:14:46.336Z,0
2018-06-12T00:15:51.560Z,0
2018-06-12T00:16:56.998Z,0
2018-06-12T00:18:02.151Z,0
2018-06-12T00:19:06.853Z,0
2018-06-12T00:20:12.316Z,0
2018-06-12T00:21:17.504Z,0
2018-06-12T00:22:22.897Z,0
2018-06-12T00:23:28.337Z,0
2018-06-12T00:24:34.012Z,0
2018-06-12T00:25:39.164Z,0
2018-06-12T00:26:44.602Z,0
2018-06-12T00:27:50.106Z,0
2018-06-12T00:28:55.550Z,0
2018-06-12T00:30:00.996Z,0
2018-06-12T00:31:06.913Z,0
2018-06-12T00:32:12.049Z,0
2018-06-12T00:33:17.477Z,0
2018-06-12T00:34:23.258Z,0
2018-06-12T00:35:28.705Z,0
2018-06-12T00:36:34.133Z,0
2018-06-12T00:37:39.294Z,0
2018-06-12T00:38:44.453Z,0
2018-06-12T00:39:49.900Z,0
2018-06-12T00:40:55.332Z,0
2018-06-12T00:42:00.201Z,0
2018-06-12T00:43:05.030Z,0
2018-06-12T00:44:10.217Z,0
2018-06-12T00:45:15.666Z,0
2018-06-12T00:46:21.179Z,0
2018-06-12T00:47:26.638Z,0
2018-06-12T00:48:32.472Z,0
2018-06-12T00:49:37.653Z,0
2018-06-12T00:50:43.088Z,0
2018-06-12T00:51:48.771Z,0
2018-06-12T00:52:54.240Z,0
2018-06-12T00:53:59.679Z,0
2018-06-12T00:55:04.908Z,0
2018-06-12T00:56:10.088Z,0
2018-06-12T00:57:15.527Z,0
2018-06-12T00:58:21.035Z,0
2018-06-12T00:59:25.635Z,0
2018-06-12T01:00:30.330Z,0
2018-06-12T01:01:35.776Z,0
2018-06-12T01:02:40.948Z,0
2018-06-12T01:03:46.812Z,0
2018-06-12T01:04:51.977Z,0
2018-06-12T01:05:57.131Z,0
2018-06-12T01:07:02.912Z,0
2018-06-12T01:08:08.070Z,0
2018-06-12T01:09:13.503Z,0
2018-06-12T01:10:18.772Z,0
2018-06-12T01:11:24.215Z,0
2018-06-12T01:12:29.962Z,0
2018-06-12T01:13:35.400Z,0
2018-06-12T01:14:40.822Z,0
2018-06-12T01:15:46.230Z,0
2018-06-12T01:16:51.669Z,0
2018-06-12T01:17:57.106Z,0
2018-06-12T01:19:01.943Z,0
2018-06-12T01:20:06.808Z,0
2018-06-12T01:21:12.256Z,0
2018-06-12T01:22:17.365Z,0
2018-06-12T01:23:22.232Z,0
2018-06-12T01:24:27.644Z,0
2018-06-12T01:25:32.213Z,0
2018-06-12T01:26:37.654Z,0
2018-06-12T01:27:42.762Z,0
2018-06-12T01:28:47.907Z,0
2018-06-12T01:29:53.347Z,0
2018-06-12T01:30:59.030Z,0
2018-06-12T01:32:03.620Z,0
2018-06-12T01:33:08.477Z,0
2018-06-12T01:34:13.890Z,0
2018-06-12T01:35:19.329Z,0
2018-06-12T01:36:24.197Z,0
2018-06-12T01:37:44.533Z,0
2018-06-12T01:38:49.687Z,0
2018-06-12T01:39:55.568Z,0
2018-06-12T01:41:01.005Z,0
2018-06-12T01:42:06.186Z,0
2018-06-12T01:43:11.428Z,0
2018-06-12T01:44:16.593Z,0
2018-06-12T01:45:22.048Z,0
2018-06-12T01:46:27.652Z,0
2018-06-12T01:47:32.806Z,0
2018-06-12T01:48:37.962Z,0
2018-06-12T01:49:42.567Z,0
2018-06-12T01:50:47.469Z,0
2018-06-12T01:51:53.256Z,0
2018-06-12T01:52:58.412Z,0
2018-06-12T01:54:03.285Z,0
2018-06-12T01:55:08.580Z,0
2018-06-12T01:56:14.048Z,0
2018-06-12T01:57:19.490Z,0
2018-06-12T01:58:25.272Z,0
2018-06-12T01:59:30.425Z,0
2018-06-12T02:00:36.334Z,0
2018-06-12T02:01:41.219Z,0
2018-06-12T02:02:46.078Z,0
2018-06-12T02:03:51.860Z,0
2018-06-12T02:04:57.008Z,0
2018-06-12T02:06:02.153Z,0
2018-06-12T02:07:06.919Z,0
2018-06-12T02:08:12.357Z,0
2018-06-12T02:09:17.503Z,0
2018-06-12T02:10:22.905Z,0
2018-06-12T02:11:28.065Z,0
2018-06-12T02:12:33.678Z,0
2018-06-12T02:13:39.111Z,0
2018-06-12T02:14:44.276Z,0
2018-06-12T02:15:49.826Z,0
2018-06-12T02:16:55.269Z,0
2018-06-12T02:18:00.699Z,0
2018-06-12T02:19:05.862Z,0
2018-06-12T02:20:10.731Z,0
2018-06-12T02:21:16.163Z,0
2018-06-12T02:22:21.820Z,0
2018-06-12T02:23:27.254Z,0
2018-06-12T02:24:33.226Z,0
2018-06-12T02:25:38.380Z,0
2018-06-12T02:26:43.809Z,0
2018-06-12T02:27:49.224Z,0
2018-06-12T02:28:54.675Z,0
2018-06-12T02:29:59.824Z,0
2018-06-12T02:31:05.042Z,0
2018-06-12T02:32:09.905Z,0
2018-06-12T02:33:15.059Z,0
2018-06-12T02:34:20.741Z,0
2018-06-12T02:35:25.894Z,0
2018-06-12T02:36:31.777Z,0
2018-06-12T02:37:36.930Z,0
2018-06-12T02:38:42.080Z,0
2018-06-12T02:39:47.636Z,0
2018-06-12T02:40:53.081Z,0
2018-06-12T02:41:58.512Z,0
2018-06-12T02:43:03.719Z,0
2018-06-12T02:44:09.158Z,0
2018-06-12T02:45:14.304Z,0
2018-06-12T02:46:19.984Z,0
2018-06-12T02:47:24.857Z,0
2018-06-12T02:48:30.890Z,0
2018-06-12T02:49:36.322Z,0
2018-06-12T02:50:41.474Z,0
2018-06-12T02:51:46.584Z,0
2018-06-12T02:52:52.022Z,0
2018-06-12T02:53:56.902Z,0
2018-06-12T02:55:02.120Z,0
2018-06-12T02:56:06.429Z,0
2018-06-12T02:57:11.877Z,0
2018-06-12T02:58:17.285Z,0
2018-06-12T02:59:22.732Z,0
2018-06-12T03:00:28.865Z,0
2018-06-12T03:01:34.313Z,0
2018-06-12T03:02:39.489Z,0
2018-06-12T03:03:44.952Z,0
2018-06-12T03:04:49.531Z,0
2018-06-12T03:05:54.984Z,0
2018-06-12T03:07:00.535Z,0
2018-06-12T03:08:05.966Z,0
2018-06-12T03:09:10.878Z,0
2018-06-12T03:10:15.750Z,0
2018-06-12T03:11:20.901Z,0
2018-06-12T03:12:26.504Z,0
2018-06-12T03:13:31.381Z,0
2018-06-12T03:14:36.826Z,0
2018-06-12T03:15:41.679Z,0
2018-06-12T03:16:46.571Z,0
2018-06-12T03:17:52.018Z,0
2018-06-12T03:18:57.232Z,0
2018-06-12T03:20:02.098Z,0
2018-06-12T03:21:06.962Z,0
2018-06-12T03:22:12.479Z,0
2018-06-12T03:23:17.779Z,0
2018-06-12T03:24:22.737Z,0
2018-06-12T03:25:27.562Z,0
2018-06-12T03:26:33.007Z,0
2018-06-12T03:27:38.117Z,0
2018-06-12T03:28:43.565Z,0
2018-06-12T03:29:49.017Z,0
2018-06-12T03:30:54.012Z,0
2018-06-12T03:31:59.456Z,0
2018-06-12T03:33:04.624Z,0
2018-06-12T03:34:09.189Z,0
2018-06-12T03:35:14.342Z,0
2018-06-12T03:36:19.487Z,0
2018-06-12T03:37:25.343Z,0
2018-06-12T03:38:30.502Z,0
2018-06-12T03:39:36.056Z,0
2018-06-12T03:40:41.506Z,0
2018-06-12T03:41:46.663Z,0
2018-06-12T03:42:52.069Z,0
2018-06-12T03:43:57.531Z,0
2018-06-12T03:45:02.120Z,0
2018-06-12T03:46:07.094Z,0
2018-06-12T03:47:12.560Z,0
2018-06-12T03:48:18.016Z,0
2018-06-12T03:49:23.659Z,0
2018-06-12T03:50:28.861Z,0
2018-06-12T03:51:33.977Z,0
2018-06-12T03:52:39.125Z,0
2018-06-12T03:53:44.558Z,0
2018-06-12T03:54:49.951Z,0
2018-06-12T03:55:55.409Z,0
2018-06-12T03:57:00.299Z,0
2018-06-12T03:58:05.404Z,0
2018-06-12T03:59:10.000Z,0
2018-06-12T04:00:15.168Z,0
2018-06-12T04:01:20.042Z,0
2018-06-12T04:02:25.481Z,0
2018-06-12T04:03:31.253Z,0
2018-06-12T04:04:36.123Z,0
2018-06-12T04:05:41.549Z,0
2018-06-12T04:06:46.982Z,0
2018-06-12T04:07:52.426Z,0
2018-06-12T04:08:57.870Z,0
2018-06-12T04:10:03.146Z,0
2018-06-12T04:11:07.723Z,0
2018-06-12T04:12:12.883Z,0
2018-06-12T04:13:18.274Z,0
2018-06-12T04:14:23.160Z,0
2018-06-12T04:15:29.219Z,0
2018-06-12T04:16:34.425Z,0
2018-06-12T04:17:39.579Z,0
2018-06-12T04:18:45.470Z,6
2018-06-12T04:19:50.639Z,6
2018-06-12T04:20:55.785Z,6
2018-06-12T04:22:00.921Z,6
2018-06-12T04:23:05.788Z,6
2018-06-12T04:24:11.219Z,24
2018-06-12T04:25:16.400Z,24
2018-06-12T04:26:21.573Z,24
2018-06-12T04:27:27.142Z,24
2018-06-12T04:28:32.598Z,24
2018-06-12T04:29:37.749Z,24
2018-06-12T04:30:43.732Z,40
2018-06-12T04:31:49.165Z,40
2018-06-12T04:32:54.035Z,40
2018-06-12T04:33:59.737Z,55
2018-06-12T04:35:04.326Z,55
2018-06-12T04:36:09.508Z,40
2018-06-12T04:37:14.942Z,40
2018-06-12T04:38:20.376Z,40
2018-06-12T04:39:25.459Z,55
2018-06-12T04:40:30.346Z,55
2018-06-12T04:41:35.208Z,40
2018-06-12T04:42:40.923Z,24
2018-06-12T04:43:45.800Z,24
2018-06-12T04:44:50.946Z,24
2018-06-12T04:45:56.216Z,24
2018-06-12T04:47:01.690Z,24
2018-06-12T04:48:06.587Z,24
2018-06-12T04:49:12.139Z,24
2018-06-12T04:50:17.570Z,24
2018-06-12T04:51:23.007Z,24
2018-06-12T04:52:28.502Z,24
2018-06-12T04:53:33.685Z,24
2018-06-12T04:54:39.391Z,24
2018-06-12T04:55:44.682Z,24
2018-06-12T04:56:49.549Z,40
2018-06-12T04:57:54.941Z,40
2018-06-12T04:59:00.387Z,40
2018-06-12T05:00:05.534Z,40
2018-06-12T05:01:10.946Z,40
2018-06-12T05:02:16.385Z,40
2018-06-12T05:03:21.821Z,40
2018-06-12T05:04:27.826Z,40
2018-06-12T05:05:33.273Z,55
2018-06-12T05:06:38.679Z,55
2018-06-12T05:07:43.544Z,55
2018-06-12T05:08:48.705Z,55
2018-06-12T05:09:54.264Z,55
2018-06-12T05:10:59.131Z,55
2018-06-12T05:12:03.707Z,55
2018-06-12T05:13:09.540Z,55
2018-06-12T05:14:14.997Z,55
2018-06-12T05:15:20.461Z,71
2018-06-12T05:16:26.142Z,71
2018-06-12T05:17:31.573Z,48
2018-06-12T05:18:36.706Z,48
2018-06-12T05:19:42.347Z,48
2018-06-12T05:20:47.887Z,48
2018-06-12T05:21:53.008Z,48
2018-06-12T05:22:58.497Z,48
2018-06-12T05:24:03.631Z,48
2018-06-12T05:25:08.667Z,48
2018-06-12T05:26:13.547Z,64
2018-06-12T05:27:18.855Z,64
2018-06-12T05:28:24.638Z,80
2018-06-12T05:29:29.807Z,64
2018-06-12T05:30:35.591Z,64
2018-06-12T05:31:40.458Z,64
2018-06-12T05:32:45.903Z,64
2018-06-12T05:33:51.305Z,64
2018-06-12T05:34:56.462Z,64
2018-06-12T05:36:01.340Z,64
2018-06-12T05:37:06.465Z,64
2018-06-12T05:38:11.902Z,64
2018-06-12T05:39:17.103Z,64
2018-06-12T05:40:22.501Z,64
2018-06-12T05:41:27.661Z,64
2018-06-12T05:42:33.038Z,64
2018-06-12T05:43:38.208Z,64
2018-06-12T05:44:43.642Z,64
2018-06-12T05:45:49.323Z,80
2018-06-12T05:46:54.774Z,80
2018-06-12T05:47:59.938Z,80
2018-06-12T05:49:05.350Z,80
2018-06-12T05:50:10.221Z,80
2018-06-12T05:51:15.371Z,80
2018-06-12T05:52:21.065Z,80
2018-06-12T05:53:26.233Z,80
2018-06-12T05:54:31.343Z,80
2018-06-12T05:55:35.920Z,80
2018-06-12T05:56:41.083Z,80
2018-06-12T05:57:46.765Z,80
2018-06-12T05:58:51.910Z,80
2018-06-12T05:59:57.386Z,80
2018-06-12T06:01:03.077Z,80
2018-06-12T06:02:07.668Z,80
2018-06-12T06:03:13.105Z,40
2018-06-12T06:04:18.791Z,64
2018-06-12T06:05:24.299Z,64
2018-06-12T06:06:29.971Z,64
2018-06-12T06:07:35.126Z,80
2018-06-12T06:08:39.998Z,80
2018-06-12T06:09:45.693Z,80
2018-06-12T06:10:50.869Z,80
2018-06-12T06:11:56.339Z,104
2018-06-12T06:13:01.693Z,104
2018-06-12T06:14:06.286Z,104
2018-06-12T06:15:10.869Z,104
2018-06-12T06:16:16.402Z,104
2018-06-12T06:17:21.270Z,104
2018-06-12T06:18:41.638Z,104
2018-06-12T06:19:47.079Z,104
2018-06-12T06:20:52.527Z,88
2018-06-12T06:21:57.647Z,88
2018-06-12T06:23:01.956Z,96
2018-06-12T06:24:07.308Z,96
2018-06-12T06:25:13.172Z,96
2018-06-12T06:26:18.037Z,80
2018-06-12T06:27:23.200Z,96
2018-06-12T06:28:28.554Z,96
2018-06-12T06:29:33.976Z,96
2018-06-12T06:30:39.106Z,80
2018-06-12T06:31:44.541Z,96
2018-06-12T06:32:49.967Z,80
2018-06-12T06:33:55.763Z,80
2018-06-12T06:35:00.645Z,80
2018-06-12T06:36:06.279Z,64
2018-06-12T06:37:11.691Z,64
2018-06-12T06:38:16.843Z,80
2018-06-12T06:39:21.995Z,80
2018-06-12T06:40:27.052Z,96
2018-06-12T06:41:32.406Z,96
2018-06-12T06:42:38.089Z,96
2018-06-12T06:43:43.536Z,88
2018-06-12T06:44:48.686Z,88
2018-06-12T06:45:54.366Z,104
2018-06-12T06:46:59.519Z,121
2018-06-12T06:48:04.677Z,121
2018-06-12T06:49:09.847Z,136
2018-06-12T06:50:15.006Z,136
2018-06-12T06:51:20.171Z,88
2018-06-12T06:52:25.341Z,112
2018-06-12T06:53:30.856Z,112
2018-06-12T06:54:36.560Z,145
2018-06-12T06:55:41.734Z,145
2018-06-12T06:56:46.878Z,272
2018-06-12T06:57:52.593Z,272
2018-06-12T06:58:57.851Z,272
2018-06-12T07:00:02.728Z,207
2018-06-12T07:01:08.133Z,241
2018-06-12T07:02:13.038Z,241
2018-06-12T07:03:18.469Z,257
2018-06-12T07:04:24.073Z,272
2018-06-12T07:05:28.949Z,257
2018-06-12T07:06:34.515Z,241
2018-06-12T07:07:39.953Z,241
2018-06-12T07:08:45.402Z,257
2018-06-12T07:09:50.810Z,241
2018-06-12T07:10:55.963Z,247
2018-06-12T07:12:00.834Z,232
2018-06-12T07:13:05.997Z,201
2018-06-12T07:14:10.605Z,201
2018-06-12T07:15:15.463Z,216
2018-06-12T07:16:20.696Z,257
2018-06-12T07:17:25.850Z,241
2018-06-12T07:18:31.473Z,257
2018-06-12T07:19:36.916Z,257
2018-06-12T07:20:41.796Z,257
2018-06-12T07:21:46.934Z,257
2018-06-12T07:22:52.400Z,272
2018-06-12T07:23:57.828Z,272
2018-06-12T07:25:02.560Z,272
2018-06-12T07:26:07.898Z,287
2018-06-12T07:27:13.329Z,287
2018-06-12T07:28:18.932Z,287
2018-06-12T07:29:24.375Z,272
2018-06-12T07:30:29.971Z,247
2018-06-12T07:31:34.841Z,257
2018-06-12T07:32:40.011Z,287
2018-06-12T07:33:45.791Z,287
2018-06-12T07:34:51.241Z,287
2018-06-12T07:35:56.679Z,282
2018-06-12T07:37:02.185Z,282
2018-06-12T07:38:06.692Z,282
2018-06-12T07:39:11.286Z,282
2018-06-12T07:40:16.436Z,282
2018-06-12T07:41:21.601Z,282
2018-06-12T07:42:27.582Z,282
2018-06-12T07:43:32.873Z,282
2018-06-12T07:44:37.886Z,282
2018-06-12T07:45:43.020Z,297
2018-06-12T07:46:48.452Z,297
2018-06-12T07:47:53.336Z,266
2018-06-12T07:48:59.162Z,282
2018-06-12T07:50:03.475Z,287
2018-06-12T07:51:08.331Z,266
2018-06-12T07:52:13.474Z,272
2018-06-12T07:53:18.630Z,266
2018-06-12T07:54:24.062Z,282
2018-06-12T07:55:29.368Z,282
2018-06-12T07:56:34.523Z,282
2018-06-12T07:57:40.375Z,282
2018-06-12T07:58:45.823Z,312
2018-06-12T07:59:50.982Z,312
2018-06-12T08:00:57.017Z,282
2018-06-12T08:02:01.776Z,282
2018-06-12T08:03:06.366Z,297
2018-06-12T08:04:11.779Z,327
2018-06-12T08:05:17.225Z,306
2018-06-12T08:06:22.120Z,306
2018-06-12T08:07:27.991Z,327
2018-06-12T08:08:33.140Z,322
2018-06-12T08:09:38.089Z,322
2018-06-12T08:10:43.546Z,322
2018-06-12T08:11:48.703Z,322
2018-06-12T08:12:54.315Z,322
2018-06-12T08:13:59.818Z,322
2018-06-12T08:15:04.694Z,342
2018-06-12T08:16:10.091Z,327
2018-06-12T08:17:15.268Z,312
2018-06-12T08:18:19.847Z,312
2018-06-12T08:19:24.729Z,327
2018-06-12T08:20:29.898Z,322
2018-06-12T08:21:35.615Z,352
2018-06-12T08:22:40.787Z,352
2018-06-12T08:23:46.134Z,337
2018-06-12T08:24:51.866Z,337
2018-06-12T08:25:57.302Z,352
2018-06-12T08:27:01.895Z,352
2018-06-12T08:28:07.345Z,367
2018-06-12T08:29:12.499Z,362
2018-06-12T08:30:18.311Z,367
2018-06-12T08:31:24.475Z,352
2018-06-12T08:32:29.907Z,337
2018-06-12T08:33:35.209Z,352
2018-06-12T08:34:40.363Z,337
2018-06-12T08:35:45.531Z,337
2018-06-12T08:36:51.033Z,322
2018-06-12T08:37:56.184Z,322
2018-06-12T08:39:01.668Z,322
2018-06-12T08:40:07.085Z,322
2018-06-12T08:41:12.517Z,337
2018-06-12T08:42:18.107Z,337
2018-06-12T08:43:23.891Z,337
2018-06-12T08:44:28.818Z,352
2018-06-12T08:45:34.635Z,352
2018-06-12T08:46:39.429Z,352
2018-06-12T08:47:45.070Z,352
2018-06-12T08:48:50.851Z,346
2018-06-12T08:49:56.037Z,346
2018-06-12T08:51:00.922Z,346
2018-06-12T08:52:05.763Z,362
2018-06-12T08:53:10.644Z,367
2018-06-12T08:54:15.510Z,362
2018-06-12T08:55:20.942Z,377
2018-06-12T08:56:26.099Z,377
2018-06-12T08:57:31.043Z,346
2018-06-12T08:58:36.477Z,352
2018-06-12T08:59:41.912Z,346
2018-06-12T09:00:46.190Z,266
2018-06-12T09:01:51.374Z,367
2018-06-12T09:02:56.558Z,352
2018-06-12T09:04:02.157Z,225
2018-06-12T09:05:07.022Z,306
2018-06-12T09:06:12.199Z,312
2018-06-12T09:07:16.749Z,306
2018-06-12T09:08:21.902Z,327
2018-06-12T09:09:27.076Z,322
2018-06-12T09:10:32.507Z,337
2018-06-12T09:11:37.383Z,337
2018-06-12T09:12:43.167Z,367
2018-06-12T09:13:48.814Z,367
2018-06-12T09:14:53.412Z,367
2018-06-12T09:15:58.679Z,362
2018-06-12T09:17:03.538Z,362
2018-06-12T09:18:08.430Z,185
2018-06-12T09:19:13.832Z,346
2018-06-12T09:20:19.588Z,352
2018-06-12T09:21:25.191Z,367
2018-06-12T09:22:30.551Z,352
2018-06-12T09:23:35.444Z,367
2018-06-12T09:24:40.650Z,297
2018-06-12T09:25:45.541Z,322
2018-06-12T09:26:50.981Z,322
2018-06-12T09:27:56.494Z,327
2018-06-12T09:29:01.682Z,272
2018-06-12T09:30:06.277Z,282
2018-06-12T09:31:11.211Z,249
2018-06-12T09:32:15.801Z,176
2018-06-12T09:33:20.382Z,176
2018-06-12T09:34:25.557Z,176
2018-06-12T09:35:30.726Z,201
2018-06-12T09:36:36.225Z,232
2018-06-12T09:37:41.391Z,232
2018-06-12T09:38:46.547Z,257
2018-06-12T09:39:52.097Z,282
2018-06-12T09:40:56.974Z,232
2018-06-12T09:42:01.912Z,232
2018-06-12T09:43:06.921Z,282
2018-06-12T09:44:12.085Z,312
2018-06-12T09:45:17.182Z,327
2018-06-12T09:46:22.019Z,337
2018-06-12T09:47:27.451Z,337
2018-06-12T09:48:32.920Z,337
2018-06-12T09:49:38.100Z,337
2018-06-12T09:50:42.975Z,337
2018-06-12T09:51:47.799Z,337
2018-06-12T09:52:52.674Z,337
2018-06-12T09:53:57.855Z,337
2018-06-12T09:55:02.969Z,367
2018-06-12T09:56:07.607Z,352
2018-06-12T09:57:12.766Z,337
2018-06-12T09:58:18.467Z,337
2018-06-12T09:59:23.630Z,352
2018-06-12T10:00:29.614Z,352
2018-06-12T10:01:35.051Z,352
2018-06-12T10:02:39.916Z,352
2018-06-12T10:03:45.176Z,352
2018-06-12T10:04:50.609Z,367
2018-06-12T10:05:55.475Z,352
2018-06-12T10:07:00.983Z,367
2018-06-12T10:08:05.576Z,367
2018-06-12T10:09:10.163Z,383
2018-06-12T10:10:15.567Z,383
2018-06-12T10:11:20.457Z,483
2018-06-12T10:12:40.941Z,392
2018-06-12T10:13:46.329Z,473
2018-06-12T10:14:51.479Z,442
2018-06-12T10:15:56.987Z,498
2018-06-12T10:17:02.445Z,507
2018-06-12T10:18:07.062Z,408
2018-06-12T10:19:12.292Z,408
2018-06-12T10:20:16.927Z,528
2018-06-12T10:21:22.104Z,423
2018-06-12T10:22:27.612Z,408
2018-06-12T10:23:32.700Z,392
2018-06-12T10:24:37.549Z,417
2018-06-12T10:25:42.414Z,538
2018-06-12T10:26:47.569Z,538
2018-06-12T10:27:52.984Z,408
2018-06-12T10:28:58.454Z,392
2018-06-12T10:30:03.344Z,392
2018-06-12T10:31:08.228Z,377
2018-06-12T10:32:13.878Z,402
2018-06-12T10:33:19.035Z,402
2018-06-12T10:34:24.462Z,377
2018-06-12T10:35:29.658Z,383
2018-06-12T10:36:35.348Z,367
2018-06-12T10:37:40.503Z,352
2018-06-12T10:38:45.673Z,352
2018-06-12T10:39:51.187Z,367
2018-06-12T10:40:56.633Z,392
2018-06-12T10:42:02.272Z,392
2018-06-12T10:43:06.987Z,488
2018-06-12T10:44:11.857Z,458
2018-06-12T10:45:17.013Z,498
2018-06-12T10:46:22.523Z,473
2018-06-12T10:47:27.669Z,402
2018-06-12T10:48:33.402Z,538
2018-06-12T10:49:38.289Z,538
2018-06-12T10:50:43.727Z,513
2018-06-12T10:51:49.343Z,498
2018-06-12T10:52:54.215Z,463
2018-06-12T10:53:59.357Z,498
2018-06-12T10:55:04.601Z,498
2018-06-12T10:56:10.060Z,352
2018-06-12T10:57:15.218Z,358
2018-06-12T10:58:20.614Z,352
2018-06-12T10:59:25.491Z,488
2018-06-12T11:00:30.676Z,367
2018-06-12T11:01:36.136Z,367
2018-06-12T11:02:41.031Z,367
2018-06-12T11:03:46.823Z,367
2018-06-12T11:04:52.265Z,367
2018-06-12T11:05:57.701Z,367
2018-06-12T11:07:02.478Z,352
2018-06-12T11:08:07.626Z,367
2018-06-12T11:09:12.511Z,392
2018-06-12T11:10:18.496Z,358
2018-06-12T11:11:23.379Z,342
2018-06-12T11:12:29.038Z,327
2018-06-12T11:13:34.104Z,327
2018-06-12T11:14:38.971Z,342
2018-06-12T11:15:44.242Z,327
2018-06-12T11:16:49.403Z,327
2018-06-12T11:17:54.544Z,358
2018-06-12T11:18:59.990Z,513
2018-06-12T11:20:04.570Z,528
2018-06-12T11:21:09.451Z,523
2018-06-12T11:22:15.135Z,392
2018-06-12T11:23:20.832Z,433
2018-06-12T11:24:41.013Z,398
2018-06-12T11:25:46.171Z,398
2018-06-12T11:26:51.057Z,367
2018-06-12T11:27:56.462Z,367
2018-06-12T11:29:01.900Z,352
2018-06-12T11:30:06.242Z,352
2018-06-12T11:31:11.953Z,367
2018-06-12T11:32:17.109Z,383
2018-06-12T11:33:22.254Z,383
2018-06-12T11:34:28.295Z,392
2018-06-12T11:35:33.164Z,367
2018-06-12T11:36:38.371Z,352
2018-06-12T11:37:43.458Z,367
2018-06-12T11:38:48.612Z,352
2018-06-12T11:39:53.772Z,373
2018-06-12T11:40:58.088Z,398
2018-06-12T11:42:02.988Z,498
2018-06-12T11:43:08.391Z,383
2018-06-12T11:44:13.261Z,367
2018-06-12T11:45:18.719Z,367
2018-06-12T11:46:23.982Z,383
2018-06-12T11:47:29.414Z,463
2018-06-12T11:48:35.246Z,488
2018-06-12T11:49:40.682Z,433
2018-06-12T11:50:46.330Z,488
2018-06-12T11:51:51.484Z,513
2018-06-12T11:52:56.358Z,498
2018-06-12T11:54:01.803Z,442
2018-06-12T11:55:07.230Z,473
2018-06-12T11:56:11.835Z,392
2018-06-12T11:57:17.265Z,392
2018-06-12T11:58:22.993Z,392
2018-06-12T11:59:28.363Z,408
2018-06-12T12:00:34.703Z,408
2018-06-12T12:01:39.607Z,408
2018-06-12T12:02:45.317Z,423
2018-06-12T12:03:50.858Z,408
2018-06-12T12:04:56.012Z,438
2018-06-12T12:06:01.444Z,423
2018-06-12T12:07:07.149Z,408
2018-06-12T12:08:12.664Z,423
2018-06-12T12:09:18.095Z,423
2018-06-12T12:10:23.495Z,463
2018-06-12T12:11:28.594Z,442
2018-06-12T12:12:34.100Z,417
2018-06-12T12:13:39.253Z,438
2018-06-12T12:14:44.394Z,458
2018-06-12T12:15:49.833Z,458
2018-06-12T12:16:55.010Z,433
2018-06-12T12:18:00.294Z,488
2018-06-12T12:19:05.298Z,408
2018-06-12T12:20:10.930Z,408
2018-06-12T12:21:15.869Z,408
2018-06-12T12:22:21.144Z,423
2018-06-12T12:23:26.461Z,433
2018-06-12T12:24:31.681Z,392
2018-06-12T12:25:36.576Z,398
2018-06-12T12:26:41.751Z,392
2018-06-12T12:27:47.175Z,377
2018-06-12T12:28:52.383Z,398
2018-06-12T12:29:58.014Z,398
2018-06-12T12:31:03.460Z,398
2018-06-12T12:32:08.599Z,398
2018-06-12T12:33:13.194Z,377
2018-06-12T12:34:18.340Z,392
2018-06-12T12:35:23.974Z,377
2018-06-12T12:36:29.619Z,392
2018-06-12T12:37:34.784Z,408
2018-06-12T12:38:39.663Z,408
2018-06-12T12:39:45.068Z,408
2018-06-12T12:40:50.502Z,423
2018-06-12T12:41:55.936Z,473
2018-06-12T12:43:01.346Z,473
2018-06-12T12:44:06.224Z,473
2018-06-12T12:45:11.652Z,448
2018-06-12T12:46:17.252Z,448
2018-06-12T12:47:22.407Z,448
2018-06-12T12:48:27.637Z,463
2018-06-12T12:49:32.841Z,458
2018-06-12T12:50:38.285Z,463
2018-06-12T12:51:43.688Z,478
2018-06-12T12:52:49.120Z,488
2018-06-12T12:53:53.986Z,488
2018-06-12T12:54:58.851Z,503
2018-06-12T12:56:04.334Z,488
2018-06-12T12:57:09.479Z,448
2018-06-12T12:58:14.907Z,433
2018-06-12T12:59:19.771Z,442
2018-06-12T13:00:25.570Z,458
2018-06-12T13:01:31.025Z,442
2018-06-12T13:02:36.175Z,433
2018-06-12T13:03:41.856Z,423
2018-06-12T13:04:46.731Z,408
2018-06-12T13:05:51.627Z,392
2018-06-12T13:06:57.218Z,377
2018-06-12T13:08:02.371Z,392
2018-06-12T13:09:07.524Z,392
2018-06-12T13:10:13.221Z,377
2018-06-12T13:11:18.877Z,392
2018-06-12T13:12:24.307Z,377
2018-06-12T13:13:44.745Z,377
2018-06-12T13:14:49.961Z,377
2018-06-12T13:15:55.180Z,392
2018-06-12T13:17:00.362Z,392
2018-06-12T13:18:05.506Z,392
2018-06-12T13:19:10.456Z,408
2018-06-12T13:20:15.523Z,377
2018-06-12T13:21:20.474Z,352
2018-06-12T13:22:26.110Z,342
2018-06-12T13:23:31.540Z,342
2018-06-12T13:24:37.224Z,327
2018-06-12T13:25:42.371Z,297
2018-06-12T13:26:46.959Z,302
2018-06-12T13:27:52.101Z,287
2018-06-12T13:28:56.965Z,272
2018-06-12T13:30:02.315Z,272
2018-06-12T13:31:07.726Z,257
2018-06-12T13:32:13.163Z,272
2018-06-12T13:33:18.346Z,272
2018-06-12T13:34:23.166Z,272
2018-06-12T13:35:28.319Z,272
2018-06-12T13:36:33.761Z,277
2018-06-12T13:37:38.905Z,262
2018-06-12T13:38:44.221Z,277
2018-06-12T13:39:49.906Z,277
2018-06-12T13:40:55.065Z,257
2018-06-12T13:42:00.517Z,272
2018-06-12T13:43:06.055Z,287
2018-06-12T13:44:10.917Z,302
2018-06-12T13:45:16.095Z,312
2018-06-12T13:46:22.129Z,327
2018-06-12T13:47:27.420Z,327
2018-06-12T13:48:32.861Z,342
2018-06-12T13:49:38.024Z,342
2018-06-12T13:50:43.176Z,342
2018-06-12T13:51:48.730Z,342
2018-06-12T13:52:54.165Z,327
2018-06-12T13:53:59.043Z,327
2018-06-12T13:55:04.275Z,327
2018-06-12T13:56:09.446Z,327
2018-06-12T13:57:14.895Z,312
2018-06-12T13:58:20.175Z,327
2018-06-12T13:59:25.894Z,312
2018-06-12T14:00:30.641Z,312
2018-06-12T14:01:35.798Z,317
2018-06-12T14:02:40.964Z,302
2018-06-12T14:03:46.663Z,287
2018-06-12T14:04:51.818Z,287
2018-06-12T14:05:57.249Z,272
2018-06-12T14:07:02.553Z,277
2018-06-12T14:08:07.878Z,277
2018-06-12T14:09:12.744Z,262
2018-06-12T14:10:18.537Z,277
2018-06-12T14:11:23.446Z,277
2018-06-12T14:12:29.278Z,277
2018-06-12T14:13:35.460Z,277
2018-06-12T14:14:40.972Z,277
2018-06-12T14:15:45.821Z,277
2018-06-12T14:16:50.714Z,277
2018-06-12T14:17:55.590Z,272
2018-06-12T14:19:01.591Z,272
2018-06-12T14:20:07.104Z,272
2018-06-12T14:21:12.530Z,277
2018-06-12T14:22:18.041Z,272
2018-06-12T14:23:23.483Z,277
2018-06-12T14:24:29.522Z,272
2018-06-12T14:25:34.673Z,272
2018-06-12T14:26:39.825Z,287
2018-06-12T14:27:45.411Z,287
2018-06-12T14:28:50.842Z,287
2018-06-12T14:29:56.319Z,287
2018-06-12T14:31:02.071Z,272
2018-06-12T14:32:07.222Z,272
2018-06-12T14:33:12.653Z,272
2018-06-12T14:34:18.108Z,277
2018-06-12T14:35:23.255Z,277
2018-06-12T14:36:29.060Z,277
2018-06-12T14:37:34.215Z,277
2018-06-12T14:38:39.109Z,292
2018-06-12T14:39:44.526Z,277
2018-06-12T14:40:49.699Z,292
2018-06-12T14:41:55.128Z,277
2018-06-12T14:43:00.256Z,277
2018-06-12T14:44:05.686Z,277
2018-06-12T14:45:11.118Z,277
2018-06-12T14:46:16.596Z,277
2018-06-12T14:47:21.813Z,262
2018-06-12T14:48:27.238Z,262
2018-06-12T14:49:32.401Z,277
2018-06-12T14:50:37.842Z,262
2018-06-12T14:51:42.958Z,262
2018-06-12T14:52:48.461Z,262
2018-06-12T14:53:53.615Z,262
2018-06-12T14:54:59.179Z,262
2018-06-12T14:56:04.056Z,262
2018-06-12T14:57:09.383Z,262
2018-06-12T14:58:15.072Z,247
2018-06-12T14:59:20.222Z,262
2018-06-12T15:00:26.635Z,262
2018-06-12T15:01:31.824Z,262
2018-06-12T15:02:36.698Z,277
2018-06-12T15:03:42.495Z,277
2018-06-12T15:04:47.368Z,277
2018-06-12T15:05:52.815Z,277
2018-06-12T15:06:58.598Z,262
2018-06-12T15:08:03.953Z,262
2018-06-12T15:09:09.127Z,247
2018-06-12T15:10:14.546Z,262
2018-06-12T15:11:19.414Z,247
2018-06-12T15:13:45.012Z,262
2018-06-12T15:14:50.445Z,247
2018-06-12T15:15:55.564Z,247
2018-06-12T15:17:01.008Z,247
2018-06-12T15:18:05.594Z,247
2018-06-12T15:19:10.715Z,247
2018-06-12T15:20:15.902Z,247
2018-06-12T15:21:21.344Z,247
2018-06-12T15:22:26.745Z,247
2018-06-12T15:23:31.245Z,247